createdAt,value
2023-05-09T00:01:47.518Z,99873.44
2023-05-09T00:04:15.999Z,99879.19
2023-05-09T00:06:42.397Z,99879.88
2023-05-09T00:09:08.852Z,99876.25
2023-05-09T00:11:35.182Z,99871.78
2023-05-09T00:14:02.379Z,99874.72
2023-05-09T00:16:28.725Z,99874.56
2023-05-09T00:18:55.966Z,99868.97
2023-05-09T00:21:22.319Z,99875.97
2023-05-09T00:23:48.626Z,99877.09
2023-05-09T00:26:15.776Z,99867.28
2023-05-09T00:28:43.083Z,99856.38
2023-05-09T00:31:09.411Z,99864.78
2023-05-09T00:33:35.804Z,99861.44
2023-05-09T00:36:02.142Z,99863.09
2023-05-09T00:38:28.461Z,99861.13
2023-05-09T00:40:54.776Z,99859.47
2023-05-09T00:43:21.436Z,99856.81
2023-05-09T00:45:48.076Z,99853.16
2023-05-09T00:48:15.561Z,99853.16
2023-05-09T00:50:42.418Z,99848.16
2023-05-09T00:53:09.087Z,99843.53
2023-05-09T00:55:35.871Z,99848.56
2023-05-09T00:58:03.712Z,99847.03
2023-05-09T01:00:30.131Z,99839.59
2023-05-09T01:02:56.926Z,99829.94
2023-05-09T01:05:29.293Z,99827.97
2023-05-09T01:08:13.312Z,99834.00
2023-05-09T01:10:47.646Z,99822.25
2023-05-09T01:13:29.852Z,99816.66
2023-05-09T01:16:08.472Z,99813.28
2023-05-09T01:18:45.721Z,99815.25
2023-05-09T01:21:17.213Z,99820.00
2023-05-09T01:23:44.056Z,99813.00
2023-05-09T01:26:52.091Z,99809.38
2023-05-09T01:29:44.230Z,99805.03
2023-05-09T01:32:15.878Z,99808.81
2023-05-09T01:34:45.021Z,99796.78
2023-05-09T01:37:15.478Z,99803.94
2023-05-09T01:39:47.536Z,99808.53
2023-05-09T01:42:16.536Z,99797.91
2023-05-09T01:44:45.421Z,99800.97
2023-05-09T01:47:12.712Z,99793.41
2023-05-09T01:49:41.282Z,99793.16
2023-05-09T01:52:11.152Z,99797.22
2023-05-09T01:54:40.286Z,99794.81
2023-05-09T01:57:07.976Z,99794.81
2023-05-09T01:59:35.768Z,99793.41
2023-05-09T02:02:03.964Z,99789.22
2023-05-09T02:04:30.969Z,99790.22
2023-05-09T02:06:58.940Z,99792.16
2023-05-09T02:09:25.820Z,99798.75
2023-05-09T02:11:52.230Z,99795.13
2023-05-09T02:14:19.532Z,99789.66
2023-05-09T02:16:45.993Z,99792.47
2023-05-09T02:19:12.338Z,99788.25
2023-05-09T02:21:38.922Z,99785.03
2023-05-09T02:24:05.935Z,99784.34
2023-05-09T02:26:33.158Z,99783.94
2023-05-09T02:29:00.667Z,99788.41
2023-05-09T02:31:29.560Z,99780.97
2023-05-09T02:33:57.354Z,99779.16
2023-05-09T02:36:24.251Z,99782.50
2023-05-09T02:38:51.199Z,99777.91
2023-05-09T02:41:17.511Z,99769.53
2023-05-09T02:43:44.224Z,99773.00
2023-05-09T02:46:10.859Z,99774.41
2023-05-09T02:48:37.516Z,99770.63
2023-05-09T02:51:04.814Z,99769.53
2023-05-09T02:53:31.191Z,99765.31
2023-05-09T02:55:57.513Z,99756.06
2023-05-09T02:58:23.884Z,99756.06
2023-05-09T03:00:50.824Z,99761.13
2023-05-09T03:03:17.918Z,99770.34
2023-05-09T03:05:45.012Z,99765.31
2023-05-09T03:08:11.437Z,99754.41
2023-05-09T03:10:37.883Z,99751.31
2023-05-09T03:13:04.926Z,99759.00
2023-05-09T03:15:32.081Z,99739.97
2023-05-09T03:17:59.743Z,99763.34
2023-05-09T03:20:27.301Z,99751.19
2023-05-09T03:22:53.764Z,99750.50
2023-05-09T03:25:20.483Z,99748.97
2023-05-09T03:27:46.790Z,99750.09
2023-05-09T03:30:15.068Z,99733.28
2023-05-09T03:32:43.302Z,99739.16
2023-05-09T03:35:09.920Z,99744.75
2023-05-09T03:37:36.719Z,99728.41
2023-05-09T03:40:05.722Z,99730.78
2023-05-09T03:42:38.986Z,99737.19
2023-05-09T03:45:05.687Z,99727.13
2023-05-09T03:47:32.139Z,99724.06
2023-05-09T03:49:58.711Z,99725.31
2023-05-09T03:52:25.611Z,99722.81
2023-05-09T03:54:51.964Z,99723.09
2023-05-09T03:57:18.439Z,99717.47
2023-05-09T03:59:47.015Z,99727.44
2023-05-09T04:02:14.727Z,99718.19
2023-05-09T04:04:41.168Z,99721.53
2023-05-09T04:07:08.029Z,99722.66
2023-05-09T04:09:34.697Z,99733.00
2023-05-09T04:12:01.020Z,99721.94
2023-05-09T04:14:27.404Z,99720.44
2023-05-09T04:16:54.257Z,99717.50
2023-05-09T04:19:20.739Z,99722.94
2023-05-09T04:21:47.573Z,99707.84
2023-05-09T04:24:13.948Z,99718.03
2023-05-09T04:26:46.424Z,99721.13
2023-05-09T04:29:16.304Z,99720.00
2023-05-09T04:31:48.012Z,99708.94
2023-05-09T04:34:15.681Z,99717.34
2023-05-09T04:36:42.429Z,99715.22
2023-05-09T04:39:10.235Z,99698.59
2023-05-09T04:41:38.994Z,99706.41
2023-05-09T04:44:05.416Z,99704.88
2023-05-09T04:46:31.911Z,99703.91
2023-05-09T04:48:58.310Z,99701.25
2023-05-09T04:51:26.143Z,99685.44
2023-05-09T04:53:52.475Z,99691.59
2023-05-09T04:56:22.540Z,99688.63
2023-05-09T04:58:51.252Z,99687.09
2023-05-09T05:01:17.624Z,99686.41
2023-05-09T05:03:45.896Z,99679.09
2023-05-09T05:06:12.240Z,99679.63
2023-05-09T05:08:40.476Z,99680.94
2023-05-09T05:11:06.875Z,99670.56
2023-05-09T05:13:33.832Z,99675.16
2023-05-09T05:16:01.417Z,99669.97
2023-05-09T05:18:27.816Z,99675.59
2023-05-09T05:20:54.321Z,99678.13
2023-05-09T05:23:20.930Z,99670.56
2023-05-09T05:25:49.290Z,99676.97
2023-05-09T05:28:16.015Z,99663.25
2023-05-09T05:30:42.381Z,99668.28
2023-05-09T05:33:08.743Z,99661.97
2023-05-09T05:35:35.461Z,99650.63
2023-05-09T05:38:01.887Z,99661.22
2023-05-09T05:40:28.669Z,99673.06
2023-05-09T05:42:55.977Z,99665.38
2023-05-09T05:45:23.473Z,99673.50
2023-05-09T05:47:54.280Z,99652.78
2023-05-09T05:50:22.517Z,99657.63
2023-05-09T05:52:49.014Z,99656.34
2023-05-09T05:55:17.541Z,99656.03
2023-05-09T05:57:45.652Z,99665.56
2023-05-09T06:00:15.115Z,99659.09
2023-05-09T06:02:47.719Z,99657.50
2023-05-09T06:05:21.592Z,99647.41
2023-05-09T06:07:48.064Z,99653.84
2023-05-09T06:10:15.947Z,99659.16
2023-05-09T06:12:43.426Z,99660.03
2023-05-09T06:15:10.236Z,99662.22
2023-05-09T06:17:40.811Z,99652.56
2023-05-09T06:20:07.627Z,99650.81
2023-05-09T06:22:34.322Z,99647.84
2023-05-09T06:25:00.678Z,99648.22
2023-05-09T06:27:27.038Z,99636.75
2023-05-09T06:29:53.463Z,99635.84
2023-05-09T06:32:19.805Z,99634.69
2023-05-09T06:34:46.215Z,99633.88
2023-05-09T06:37:12.582Z,99635.06
2023-05-09T06:39:38.879Z,99628.53
2023-05-09T06:42:05.370Z,99628.91
2023-05-09T06:44:36.808Z,99628.06
2023-05-09T06:47:03.111Z,99607.75
2023-05-09T06:49:29.489Z,99608.13
2023-05-09T06:51:55.803Z,99604.63
2023-05-09T06:54:22.113Z,99600.81
2023-05-09T06:56:48.465Z,99605.81
2023-05-09T06:59:16.412Z,99597.53
2023-05-09T07:01:43.025Z,99595.03
2023-05-09T07:04:09.453Z,99584.06
2023-05-09T07:06:35.952Z,99596.13
2023-05-09T07:09:03.630Z,99592.34
2023-05-09T07:11:37.411Z,99585.53
2023-05-09T07:14:04.133Z,99587.06
2023-05-09T07:16:30.508Z,99571.94
2023-05-09T07:18:56.829Z,99573.53
2023-05-09T07:21:23.197Z,99572.56
2023-05-09T07:23:49.524Z,99573.75
2023-05-09T07:26:15.848Z,99560.13
2023-05-09T07:28:42.196Z,99554.84
2023-05-09T07:31:09.296Z,99560.06
2023-05-09T07:33:36.004Z,99562.53
2023-05-09T07:36:02.750Z,99558.72
2023-05-09T07:38:29.069Z,99561.06
2023-05-09T07:40:55.371Z,99552.25
2023-05-09T07:43:21.655Z,99554.91
2023-05-09T07:45:48.057Z,99537.19
2023-05-09T07:48:14.414Z,99538.91
2023-05-09T07:50:40.777Z,99537.28
2023-05-09T07:53:07.080Z,99536.47
2023-05-09T07:55:33.403Z,99528.28
2023-05-09T07:57:59.688Z,99531.97
2023-05-09T08:00:26.018Z,99527.28
2023-05-09T08:02:52.960Z,99530.66
2023-05-09T08:05:19.924Z,99520.16
2023-05-09T08:07:46.504Z,99517.66
2023-05-09T08:10:12.942Z,99518.31
2023-05-09T08:12:39.643Z,99512.97
2023-05-09T08:15:06.727Z,99506.00
2023-05-09T08:17:33.096Z,99499.31
2023-05-09T08:19:59.446Z,99508.97
2023-05-09T08:22:25.761Z,99500.91
2023-05-09T08:24:52.260Z,99495.91
2023-05-09T08:27:18.579Z,99489.38
2023-05-09T08:29:45.426Z,99496.81
2023-05-09T08:32:11.736Z,99494.97
2023-05-09T08:34:38.148Z,99506.31
2023-05-09T08:37:04.699Z,99493.00
2023-05-09T08:39:31.439Z,99490.56
2023-05-09T08:41:59.331Z,99482.53
2023-05-09T08:44:27.792Z,99481.88
2023-05-09T08:46:58.295Z,99490.91
2023-05-09T08:49:25.508Z,99476.06
2023-05-09T08:51:52.582Z,99477.75
2023-05-09T08:54:20.664Z,99474.41
2023-05-09T08:56:49.558Z,99471.69
2023-05-09T08:59:17.177Z,99469.31
2023-05-09T09:01:43.649Z,99463.53
2023-05-09T09:04:11.883Z,99470.63
2023-05-09T09:06:39.652Z,99473.09
2023-05-09T09:09:08.916Z,99473.69
2023-05-09T09:12:12.510Z,99468.69
2023-05-09T09:14:54.278Z,99447.50
2023-05-09T09:18:07.405Z,99463.63
2023-05-09T09:23:32.572Z,99452.78
2023-05-09T09:26:06.708Z,99449.63
2023-05-09T09:28:33.628Z,99453.44
2023-05-09T10:02:19.212Z,99408.31
2023-05-09T10:08:06.969Z,99404.78
2023-05-09T10:11:04.351Z,99399.28
2023-05-09T10:13:38.325Z,99388.25
2023-05-09T10:16:08.031Z,99394.94
2023-05-09T10:18:43.380Z,99393.94
2023-05-09T10:21:24.494Z,99391.66
2023-05-09T10:27:19.115Z,99385.78
2023-05-09T10:30:15.546Z,99392.81
2023-05-09T10:32:56.628Z,99387.94
2023-05-09T10:35:49.299Z,99377.44
2023-05-09T10:38:21.650Z,99377.88
2023-05-09T10:41:00.453Z,99373.44
2023-05-09T10:43:39.837Z,99374.63
2023-05-09T10:46:10.534Z,99373.53
2023-05-09T10:48:47.258Z,99371.19
2023-05-09T10:51:16.256Z,99365.13
2023-05-09T10:54:02.338Z,99361.69
2023-05-09T10:56:48.069Z,99372.53
2023-05-09T10:59:38.376Z,99364.00
2023-05-09T11:02:20.800Z,99359.22
2023-05-09T11:04:55.612Z,99347.88
2023-05-09T11:07:43.374Z,99354.88
2023-05-09T11:10:21.950Z,99342.63
2023-05-09T11:13:01.846Z,99346.22
2023-05-09T11:15:33.156Z,99335.78
2023-05-09T11:18:09.838Z,99333.09
2023-05-09T11:20:44.448Z,99330.69
2023-05-09T11:23:34.967Z,99326.47
2023-05-09T11:26:08.546Z,99316.97
2023-05-09T11:28:50.012Z,99295.22
2023-05-09T11:31:22.184Z,99306.72
2023-05-09T11:34:05.044Z,99308.25
2023-05-09T11:36:58.372Z,99309.06
2023-05-09T11:43:19.544Z,99294.44
2023-05-09T11:46:11.797Z,99281.00
2023-05-09T12:03:41.689Z,99243.72
2023-05-09T12:06:32.983Z,99253.06
2023-05-09T12:09:02.534Z,99241.97
2023-05-09T12:11:32.247Z,99237.63
2023-05-09T12:14:05.021Z,99220.88
2023-05-09T12:16:55.930Z,99225.66
2023-05-09T12:19:41.244Z,99233.97
2023-05-09T12:22:19.274Z,99223.84
2023-05-09T12:24:53.043Z,99216.63
2023-05-09T12:27:21.269Z,99211.66
2023-05-09T12:29:48.722Z,99208.16
2023-05-09T12:32:21.005Z,99201.47
2023-05-09T12:34:57.424Z,99187.34
2023-05-09T12:37:23.906Z,99191.69
2023-05-09T12:40:26.108Z,99181.19
2023-05-09T12:42:54.254Z,99171.66
2023-05-09T12:45:21.161Z,99176.00
2023-05-09T12:47:51.834Z,99178.13
2023-05-09T12:50:21.349Z,99164.22
2023-05-09T12:53:02.723Z,99178.56
2023-05-09T12:55:41.097Z,99173.88
2023-05-09T12:58:09.963Z,99166.28
2023-05-09T13:00:45.008Z,99164.41
2023-05-09T13:03:31.737Z,99179.63
2023-05-09T13:06:02.345Z,99174.16
2023-05-09T13:08:29.748Z,99172.03
2023-05-09T13:11:14.857Z,99169.44
2023-05-09T13:13:51.654Z,99159.47
2023-05-09T13:16:19.805Z,99166.94
2023-05-09T13:18:52.386Z,99161.59
2023-05-09T13:21:19.234Z,99147.34
2023-05-09T13:23:45.798Z,99154.19
2023-05-09T13:26:12.284Z,99145.72
2023-05-09T13:28:39.300Z,99121.47
2023-05-09T13:31:06.654Z,99136.44
2023-05-09T13:33:36.809Z,99132.63
2023-05-09T13:36:09.260Z,99125.34
2023-05-09T13:38:38.751Z,99114.00
2023-05-09T13:41:05.891Z,99112.19
2023-05-09T13:43:32.173Z,99106.19
2023-05-09T13:45:58.595Z,99103.78
2023-05-09T13:48:25.011Z,99099.09
2023-05-09T13:50:51.675Z,99103.72
2023-05-09T13:53:18.043Z,99095.88
2023-05-09T13:55:45.405Z,99096.06
2023-05-09T13:58:12.520Z,99098.38
2023-05-09T14:00:38.811Z,99082.06
2023-05-09T14:03:05.375Z,99091.84
2023-05-09T14:05:32.008Z,99091.84
2023-05-09T14:07:58.407Z,99082.72
2023-05-09T14:10:26.610Z,99079.38
2023-05-09T14:12:53.947Z,99060.03
2023-05-09T14:15:20.509Z,99050.34
2023-05-09T14:17:46.976Z,99066.69
2023-05-09T14:20:15.575Z,99069.81
2023-05-09T14:22:42.593Z,99050.63
2023-05-09T14:25:09.200Z,99055.09
2023-05-09T14:27:38.339Z,99053.06
2023-05-09T14:30:05.036Z,99050.38
2023-05-09T14:32:31.574Z,99040.88
2023-05-09T14:34:58.030Z,99042.81
2023-05-09T14:37:24.381Z,99029.63
2023-05-09T14:39:50.801Z,99028.25
2023-05-09T14:42:17.245Z,99033.06
2023-05-09T14:44:44.642Z,99029.38
2023-05-09T14:47:11.054Z,99032.13
2023-05-09T14:49:39.698Z,99028.66
2023-05-09T14:52:06.026Z,99013.69
2023-05-09T14:54:32.537Z,99019.53
2023-05-09T14:56:59.472Z,99013.78
2023-05-09T14:59:25.857Z,99007.81
2023-05-09T15:01:52.591Z,99006.81
2023-05-09T15:04:19.018Z,99003.94
2023-05-09T15:06:45.777Z,98993.59
2023-05-09T15:09:12.917Z,99002.63
2023-05-09T15:11:47.415Z,98992.69
2023-05-09T15:14:15.089Z,98987.34
2023-05-09T15:16:41.734Z,98973.34
2023-05-09T15:19:09.199Z,98987.34
2023-05-09T15:21:35.818Z,98981.34
2023-05-09T15:24:02.485Z,98974.44
2023-05-09T15:26:29.143Z,98965.78
2023-05-09T15:28:55.468Z,98971.56
2023-05-09T15:31:23.215Z,98963.19
2023-05-09T15:33:49.556Z,98965.59
2023-05-09T15:36:16.232Z,98970.00
2023-05-09T15:38:42.606Z,98968.25
2023-05-09T15:41:09.213Z,98959.13
2023-05-09T15:43:35.493Z,98959.13
2023-05-09T15:46:02.390Z,98950.66
2023-05-09T15:48:28.784Z,98950.47
2023-05-09T15:50:55.103Z,98947.13
2023-05-09T15:53:23.321Z,98951.88
2023-05-09T15:55:49.909Z,98938.50
2023-05-09T15:58:16.376Z,98938.50
2023-05-09T16:00:42.766Z,98944.47
2023-05-09T16:03:09.338Z,98929.66
2023-05-09T16:05:35.785Z,98926.78
2023-05-09T16:08:02.232Z,98922.47
2023-05-09T16:10:28.530Z,98925.66
2023-05-09T16:12:54.929Z,98926.22
2023-05-09T16:15:21.359Z,98916.09
2023-05-09T16:17:47.761Z,98918.56
2023-05-09T16:20:14.297Z,98908.53
2023-05-09T16:22:41.619Z,98915.28
2023-05-09T16:25:08.600Z,98910.28
2023-05-09T16:27:34.990Z,98906.47
2023-05-09T16:30:01.680Z,98917.53
2023-05-09T16:32:28.183Z,98907.66
2023-05-09T16:34:54.534Z,98916.72
2023-05-09T16:37:20.843Z,98908.50
2023-05-09T16:39:47.346Z,98905.38
2023-05-09T16:42:13.662Z,98902.69
2023-05-09T16:44:40.043Z,98910.53
2023-05-09T16:47:06.893Z,98900.03
2023-05-09T16:49:33.252Z,98894.03
2023-05-09T16:51:59.767Z,98896.97
2023-05-09T16:54:26.068Z,98885.47
2023-05-09T16:56:52.486Z,98889.41
2023-05-09T16:59:19.971Z,98890.25
2023-05-09T17:01:47.470Z,98885.09
2023-05-09T17:04:14.464Z,98882.41
2023-05-09T17:06:40.970Z,98884.28
2023-05-09T17:09:07.566Z,98878.28
2023-05-09T17:11:33.987Z,98875.69
2023-05-09T17:14:02.310Z,98882.22
2023-05-09T17:16:28.956Z,98873.56
2023-05-09T17:18:55.387Z,98880.19
2023-05-09T17:21:22.865Z,98895.66
2023-05-09T17:23:49.189Z,98894.56
2023-05-09T17:26:15.553Z,98897.66
2023-05-09T17:28:41.898Z,98892.31
2023-05-09T17:31:08.345Z,98888.75
2023-05-09T17:33:34.741Z,98880.47
2023-05-09T17:36:01.475Z,98882.09
2023-05-09T17:38:27.878Z,98879.81
2023-05-09T17:40:54.293Z,98883.31
2023-05-09T17:43:21.604Z,98885.31
2023-05-09T17:45:48.005Z,98868.50
2023-05-09T17:48:14.454Z,98873.28
2023-05-09T17:50:40.916Z,98868.28
2023-05-09T17:53:09.323Z,98857.63
2023-05-09T17:55:36.010Z,98857.34
2023-05-09T17:58:02.508Z,98855.59
2023-05-09T18:00:29.199Z,98843.72
2023-05-09T18:02:57.704Z,98853.56
2023-05-09T18:05:26.210Z,98846.28
2023-05-09T18:07:53.525Z,98846.06
2023-05-09T18:10:20.535Z,98839.16
2023-05-09T18:12:47.338Z,98843.19
2023-05-09T18:15:14.029Z,98854.81
2023-05-09T18:17:40.593Z,98837.84
2023-05-09T18:20:08.455Z,98843.28
2023-05-09T18:22:34.791Z,98846.88
2023-05-09T18:25:01.121Z,98845.63
2023-05-09T18:27:27.440Z,98851.34
2023-05-09T18:29:54.062Z,98855.03
2023-05-09T18:32:20.655Z,98854.28
2023-05-09T18:34:48.321Z,98849.56
2023-05-09T18:37:14.695Z,98853.72
2023-05-09T18:39:41.016Z,98859.13
2023-05-09T18:42:07.439Z,98849.81
2023-05-09T18:44:33.804Z,98847.13
2023-05-09T18:47:00.365Z,98868.78
2023-05-09T18:49:26.973Z,98864.13
2023-05-09T18:51:53.361Z,98866.75
2023-05-09T18:54:19.724Z,98871.38
2023-05-09T18:56:46.559Z,98869.53
2023-05-09T18:59:16.050Z,98871.13
2023-05-09T19:01:43.836Z,98857.72
2023-05-09T19:04:10.220Z,98870.78
2023-05-09T19:06:36.696Z,98873.00
2023-05-09T19:09:04.211Z,98866.81
2023-05-09T19:11:30.606Z,98874.72
2023-05-09T19:13:56.962Z,98870.25
2023-05-09T19:16:24.598Z,98866.94
2023-05-09T19:18:51.243Z,98865.53
2023-05-09T19:21:18.630Z,98868.88
2023-05-09T19:23:47.641Z,98878.16
2023-05-09T19:26:15.348Z,98871.84
2023-05-09T19:28:42.386Z,98875.53
2023-05-09T19:31:10.023Z,98867.75
2023-05-09T19:33:36.427Z,98881.88
2023-05-09T19:36:02.927Z,98874.59
2023-05-09T19:38:30.448Z,98877.25
2023-05-09T19:40:56.799Z,98881.88
2023-05-09T19:43:23.150Z,98873.22
2023-05-09T19:45:49.523Z,98880.56
2023-05-09T19:48:15.890Z,98878.06
2023-05-09T19:50:43.169Z,98865.75
2023-05-09T19:53:09.660Z,98862.78
2023-05-09T19:55:36.619Z,98867.13
2023-05-09T19:58:03.293Z,98862.19
2023-05-09T20:00:29.611Z,98853.53
2023-05-09T20:02:55.994Z,98860.06
2023-05-09T20:05:22.326Z,98847.69
2023-05-09T20:07:49.319Z,98849.63
2023-05-09T20:10:16.143Z,98852.13
2023-05-09T20:12:43.359Z,98847.09
2023-05-09T20:15:10.083Z,98857.09
2023-05-09T20:17:36.505Z,98854.59
2023-05-09T20:20:04.084Z,98848.69
2023-05-09T20:22:30.414Z,98850.50
2023-05-09T20:24:56.749Z,98828.91
2023-05-09T20:27:23.504Z,98854.22
2023-05-09T20:29:49.833Z,98845.16
2023-05-09T20:32:16.136Z,98840.91
2023-05-09T20:34:42.463Z,98833.59
2023-05-09T20:37:08.924Z,98842.03
2023-05-09T20:39:35.358Z,98839.50
2023-05-09T20:42:02.312Z,98840.84
2023-05-09T20:44:29.068Z,98834.25
2023-05-09T20:46:55.609Z,98840.84
2023-05-09T20:49:22.652Z,98833.03
2023-05-09T20:51:49.073Z,98833.56
2023-05-09T20:54:17.494Z,98836.75
2023-05-09T20:56:43.774Z,98833.44
2023-05-09T20:59:10.120Z,98835.22
2023-05-09T21:01:36.652Z,98833.09
2023-05-09T21:04:08.163Z,98826.91
2023-05-09T21:06:36.032Z,98800.84
2023-05-09T21:09:03.234Z,98817.50
2023-05-09T21:11:30.123Z,98823.97
2023-05-09T21:13:56.543Z,98816.66
2023-05-09T21:22:43.508Z,98826.13
2023-05-09T21:25:10.025Z,98816.84
2023-05-09T21:27:36.316Z,98812.19
2023-05-09T21:30:02.689Z,98808.19
2023-05-09T21:32:29.047Z,98812.25
2023-05-09T21:34:55.501Z,98816.56
2023-05-09T21:37:21.836Z,98809.31
2023-05-09T21:39:48.197Z,98807.94
2023-05-09T21:42:14.625Z,98808.59
2023-05-09T21:44:41.023Z,98803.31
2023-05-09T21:47:07.418Z,98807.00
2023-05-09T21:49:33.812Z,98807.34
2023-05-09T21:52:00.186Z,98818.00
2023-05-09T21:54:26.489Z,98806.50
2023-05-09T21:56:52.771Z,98808.53
2023-05-09T21:59:20.720Z,98806.88
2023-05-09T22:01:47.050Z,98819.69
2023-05-09T22:04:13.395Z,98803.38
2023-05-09T22:06:41.564Z,98804.56
2023-05-09T22:09:09.084Z,98808.06
2023-05-09T22:11:35.560Z,98798.25
2023-05-09T22:14:01.916Z,98808.09
2023-05-09T22:16:28.724Z,98816.41
2023-05-09T22:18:55.713Z,98805.25
2023-05-09T22:21:22.016Z,98817.41
2023-05-09T22:23:48.319Z,98817.25
2023-05-09T22:26:14.621Z,98823.91
2023-05-09T22:28:40.983Z,98811.63
2023-05-09T22:31:07.619Z,98824.41
2023-05-09T22:33:34.343Z,98822.41
2023-05-09T22:36:01.039Z,98816.41
2023-05-09T22:38:27.353Z,98818.06
2023-05-09T22:40:53.627Z,98816.09
2023-05-09T22:43:20.207Z,98820.09
2023-05-09T22:45:46.550Z,98823.59
2023-05-09T22:48:12.872Z,98822.41
2023-05-09T22:50:39.153Z,98822.25
2023-05-09T22:53:05.463Z,98821.44
2023-05-09T22:55:31.807Z,98834.72
2023-05-09T22:57:58.092Z,98825.22
2023-05-09T23:00:24.380Z,98838.19
2023-05-09T23:02:50.949Z,98846.00
2023-05-09T23:05:17.386Z,98849.66
2023-05-09T23:07:44.524Z,98848.66
2023-05-09T23:10:10.881Z,98854.63
2023-05-09T23:12:37.995Z,98855.31
2023-05-09T23:15:06.272Z,98851.34
2023-05-09T23:17:32.630Z,98864.13
2023-05-09T23:20:00.535Z,98855.97
2023-05-09T23:22:26.987Z,98856.66
2023-05-09T23:24:53.355Z,98859.13
2023-05-09T23:27:19.637Z,98851.84
2023-05-09T23:29:45.932Z,98848.84
2023-05-09T23:32:12.269Z,98839.69
2023-05-09T23:34:38.807Z,98850.31
2023-05-09T23:37:05.139Z,98854.81
2023-05-09T23:39:31.582Z,98847.66
2023-05-09T23:41:58.135Z,98846.50
2023-05-09T23:44:25.438Z,98852.31
2023-05-09T23:46:51.841Z,98853.66
2023-05-09T23:49:18.199Z,98853.47
2023-05-09T23:51:44.517Z,98852.31
2023-05-09T23:54:10.797Z,98855.97
2023-05-09T23:56:37.218Z,98846.31
2023-05-09T23:59:03.520Z,98860.47
